sensor_id;sensor_type;location;lat;lon;timestamp;pressure;altitude;pressure_sealevel;temperature;humidity
11830;BME280;5972;42.134;24.718;2022-08-30T00:00:07;99501.91;;;26.66;89.25
11830;BME280;5972;42.134;24.718;2022-08-30T00:02:52;99506.81;;;26.62;89.93
11830;BME280;5972;42.134;24.718;2022-08-30T00:05:19;99503.81;;;26.47;91.38
11830;BME280;5972;42.134;24.718;2022-08-30T00:07:46;99497.72;;;26.39;92.58
11830;BME280;5972;42.134;24.718;2022-08-30T00:10:13;99504.09;;;26.49;92.50
11830;BME280;5972;42.134;24.718;2022-08-30T00:12:40;99499.97;;;26.32;94.63
11830;BME280;5972;42.134;24.718;2022-08-30T00:15:10;99511.66;;;26.27;95.76
11830;BME280;5972;42.134;24.718;2022-08-30T00:17:38;99505.88;;;26.21;96.44
11830;BME280;5972;42.134;24.718;2022-08-30T00:20:07;99509.22;;;26.16;97.03
11830;BME280;5972;42.134;24.718;2022-08-30T00:22:35;99504.69;;;26.09;98.51
11830;BME280;5972;42.134;24.718;2022-08-30T00:25:02;99500.94;;;26.03;100.00
11830;BME280;5972;42.134;24.718;2022-08-30T00:27:29;99498.84;;;26.07;100.00
11830;BME280;5972;42.134;24.718;2022-08-30T00:29:56;99501.84;;;26.00;100.00
11830;BME280;5972;42.134;24.718;2022-08-30T00:32:24;99501.84;;;26.00;100.00
11830;BME280;5972;42.134;24.718;2022-08-30T00:34:53;99498.75;;;25.98;100.00
11830;BME280;5972;42.134;24.718;2022-08-30T00:37:20;99499.75;;;25.92;100.00
11830;BME280;5972;42.134;24.718;2022-08-30T00:39:48;99512.41;;;25.93;100.00
11830;BME280;5972;42.134;24.718;2022-08-30T00:42:15;99505.22;;;25.83;100.00
11830;BME280;5972;42.134;24.718;2022-08-30T00:44:43;99512.44;;;25.80;100.00
11830;BME280;5972;42.134;24.718;2022-08-30T00:47:11;99506.44;;;25.82;100.00
11830;BME280;5972;42.134;24.718;2022-08-30T00:49:50;99507.22;;;25.82;100.00
11830;BME280;5972;42.134;24.718;2022-08-30T00:52:19;99508.97;;;25.89;100.00
11830;BME280;5972;42.134;24.718;2022-08-30T00:54:47;99510.78;;;25.83;100.00
11830;BME280;5972;42.134;24.718;2022-08-30T00:57:18;99492.72;;;25.78;100.00
11830;BME280;5972;42.134;24.718;2022-08-30T00:59:47;99503.66;;;25.82;100.00
11830;BME280;5972;42.134;24.718;2022-08-30T01:02:17;99503.34;;;25.80;100.00
11830;BME280;5972;42.134;24.718;2022-08-30T01:04:47;99509.00;;;25.76;100.00
11830;BME280;5972;42.134;24.718;2022-08-30T01:07:15;99502.38;;;25.74;100.00
11830;BME280;5972;42.134;24.718;2022-08-30T01:09:42;99498.69;;;25.77;100.00
11830;BME280;5972;42.134;24.718;2022-08-30T01:12:10;99502.69;;;25.76;100.00
11830;BME280;5972;42.134;24.718;2022-08-30T01:14:37;99501.81;;;25.66;100.00
11830;BME280;5972;42.134;24.718;2022-08-30T01:17:05;99504.25;;;25.64;100.00
11830;BME280;5972;42.134;24.718;2022-08-30T01:19:35;99501.03;;;25.65;100.00
11830;BME280;5972;42.134;24.718;2022-08-30T01:22:10;99511.91;;;25.60;100.00
11830;BME280;5972;42.134;24.718;2022-08-30T01:24:43;99496.84;;;25.61;100.00
11830;BME280;5972;42.134;24.718;2022-08-30T01:27:13;99497.03;;;25.54;100.00
11830;BME280;5972;42.134;24.718;2022-08-30T01:29:40;99501.03;;;25.53;100.00
11830;BME280;5972;42.134;24.718;2022-08-30T01:32:15;99497.41;;;25.56;100.00
11830;BME280;5972;42.134;24.718;2022-08-30T01:34:43;99497.72;;;25.58;100.00
11830;BME280;5972;42.134;24.718;2022-08-30T01:37:09;99490.53;;;25.60;100.00
11830;BME280;5972;42.134;24.718;2022-08-30T01:39:37;99485.53;;;25.55;100.00
11830;BME280;5972;42.134;24.718;2022-08-30T01:42:05;99495.81;;;25.55;100.00
11830;BME280;5972;42.134;24.718;2022-08-30T01:44:32;99486.88;;;25.51;100.00
11830;BME280;5972;42.134;24.718;2022-08-30T01:46:59;99482.41;;;25.53;100.00
11830;BME280;5972;42.134;24.718;2022-08-30T01:49:26;99488.72;;;25.54;100.00
11830;BME280;5972;42.134;24.718;2022-08-30T01:51:53;99490.41;;;25.51;100.00
11830;BME280;5972;42.134;24.718;2022-08-30T01:54:19;99481.75;;;25.49;100.00
11830;BME280;5972;42.134;24.718;2022-08-30T01:56:46;99484.53;;;25.49;100.00
11830;BME280;5972;42.134;24.718;2022-08-30T01:59:16;99483.75;;;25.49;100.00
11830;BME280;5972;42.134;24.718;2022-08-30T02:01:43;99484.75;;;25.42;100.00
11830;BME280;5972;42.134;24.718;2022-08-30T02:04:09;99467.06;;;25.27;100.00
11830;BME280;5972;42.134;24.718;2022-08-30T02:06:39;99480.00;;;25.30;100.00
11830;BME280;5972;42.134;24.718;2022-08-30T02:09:06;99480.78;;;25.31;100.00
11830;BME280;5972;42.134;24.718;2022-08-30T02:11:33;99457.19;;;25.26;100.00
11830;BME280;5972;42.134;24.718;2022-08-30T02:14:00;99479.00;;;25.37;100.00
11830;BME280;5972;42.134;24.718;2022-08-30T02:16:28;99481.31;;;25.38;100.00
11830;BME280;5972;42.134;24.718;2022-08-30T02:18:55;99485.75;;;25.36;100.00
11830;BME280;5972;42.134;24.718;2022-08-30T02:21:23;99479.69;;;25.28;100.00
11830;BME280;5972;42.134;24.718;2022-08-30T02:23:52;99494.97;;;25.33;100.00
11830;BME280;5972;42.134;24.718;2022-08-30T02:26:19;99486.88;;;25.25;100.00
11830;BME280;5972;42.134;24.718;2022-08-30T02:28:47;99491.41;;;25.32;100.00
11830;BME280;5972;42.134;24.718;2022-08-30T02:31:14;99492.97;;;25.33;100.00
11830;BME280;5972;42.134;24.718;2022-08-30T02:33:44;99493.53;;;25.28;100.00
11830;BME280;5972;42.134;24.718;2022-08-30T02:36:11;99500.72;;;25.25;100.00
11830;BME280;5972;42.134;24.718;2022-08-30T02:38:40;99483.56;;;25.18;100.00
11830;BME280;5972;42.134;24.718;2022-08-30T02:41:07;99484.00;;;25.16;100.00
11830;BME280;5972;42.134;24.718;2022-08-30T02:43:34;99497.63;;;25.23;100.00
11830;BME280;5972;42.134;24.718;2022-08-30T02:46:01;99495.75;;;25.20;100.00
11830;BME280;5972;42.134;24.718;2022-08-30T02:48:28;99501.50;;;25.13;100.00
11830;BME280;5972;42.134;24.718;2022-08-30T02:51:03;99503.03;;;25.14;100.00
11830;BME280;5972;42.134;24.718;2022-08-30T02:53:30;99496.72;;;25.14;100.00
11830;BME280;5972;42.134;24.718;2022-08-30T02:55:57;99494.75;;;25.14;100.00
11830;BME280;5972;42.134;24.718;2022-08-30T02:58:24;99490.88;;;25.12;100.00
11830;BME280;5972;42.134;24.718;2022-08-30T03:00:50;99476.34;;;25.08;100.00
11830;BME280;5972;42.134;24.718;2022-08-30T03:03:18;99492.97;;;25.20;100.00
11830;BME280;5972;42.134;24.718;2022-08-30T03:05:44;99496.84;;;25.23;100.00
11830;BME280;5972;42.134;24.718;2022-08-30T03:08:14;99495.31;;;25.22;100.00
11830;BME280;5972;42.134;24.718;2022-08-30T03:10:41;99495.19;;;25.13;100.00
11830;BME280;5972;42.134;24.718;2022-08-30T03:13:08;99495.72;;;25.08;100.00
11830;BME280;5972;42.134;24.718;2022-08-30T03:15:37;99494.28;;;25.03;100.00
11830;BME280;5972;42.134;24.718;2022-08-30T03:18:04;99494.63;;;24.93;100.00
11830;BME280;5972;42.134;24.718;2022-08-30T03:20:32;99487.25;;;24.86;100.00
11830;BME280;5972;42.134;24.718;2022-08-30T03:22:59;99493.25;;;24.84;100.00
11830;BME280;5972;42.134;24.718;2022-08-30T03:25:27;99499.22;;;24.83;100.00
11830;BME280;5972;42.134;24.718;2022-08-30T03:27:55;99504.66;;;24.86;100.00
11830;BME280;5972;42.134;24.718;2022-08-30T03:30:23;99506.22;;;24.88;100.00
11830;BME280;5972;42.134;24.718;2022-08-30T03:32:50;99509.88;;;24.84;100.00
11830;BME280;5972;42.134;24.718;2022-08-30T03:35:18;99508.88;;;24.91;100.00
11830;BME280;5972;42.134;24.718;2022-08-30T03:37:45;99505.81;;;24.89;100.00
11830;BME280;5972;42.134;24.718;2022-08-30T03:40:14;99511.09;;;24.83;100.00
11830;BME280;5972;42.134;24.718;2022-08-30T03:42:43;99482.91;;;24.60;100.00
11830;BME280;5972;42.134;24.718;2022-08-30T03:45:10;99508.31;;;24.83;100.00
11830;BME280;5972;42.134;24.718;2022-08-30T03:47:37;99502.44;;;24.81;100.00
11830;BME280;5972;42.134;24.718;2022-08-30T03:50:05;99504.66;;;24.86;100.00
11830;BME280;5972;42.134;24.718;2022-08-30T03:52:32;99512.94;;;24.86;100.00
11830;BME280;5972;42.134;24.718;2022-08-30T03:54:59;99511.75;;;24.88;100.00
11830;BME280;5972;42.134;24.718;2022-08-30T03:57:26;99508.47;;;24.93;100.00
11830;BME280;5972;42.134;24.718;2022-08-30T03:59:55;99518.75;;;24.92;100.00
11830;BME280;5972;42.134;24.718;2022-08-30T04:02:21;99514.66;;;24.97;100.00
11830;BME280;5972;42.134;24.718;2022-08-30T04:04:49;99517.88;;;25.08;100.00
11830;BME280;5972;42.134;24.718;2022-08-30T04:07:16;99520.56;;;25.11;100.00
11830;BME280;5972;42.134;24.718;2022-08-30T04:09:43;99527.75;;;25.21;100.00
11830;BME280;5972;42.134;24.718;2022-08-30T04:12:10;99536.41;;;25.23;100.00
11830;BME280;5972;42.134;24.718;2022-08-30T04:14:37;99528.41;;;25.38;100.00
11830;BME280;5972;42.134;24.718;2022-08-30T04:17:05;99519.34;;;25.50;99.67
11830;BME280;5972;42.134;24.718;2022-08-30T04:19:32;99523.56;;;25.67;98.08
11830;BME280;5972;42.134;24.718;2022-08-30T04:21:59;99511.13;;;25.72;96.14
11830;BME280;5972;42.134;24.718;2022-08-30T04:24:26;99499.75;;;25.92;93.28
11830;BME280;5972;42.134;24.718;2022-08-30T04:26:53;99530.84;;;26.21;92.20
11830;BME280;5972;42.134;24.718;2022-08-30T04:29:20;99528.50;;;26.32;90.63
11830;BME280;5972;42.134;24.718;2022-08-30T04:31:47;99523.53;;;26.49;88.08
11830;BME280;5972;42.134;24.718;2022-08-30T04:34:15;99534.13;;;26.85;85.72
11830;BME280;5972;42.134;24.718;2022-08-30T04:36:42;99539.22;;;27.08;82.71
11830;BME280;5972;42.134;24.718;2022-08-30T04:39:08;99538.22;;;27.33;80.68
11830;BME280;5972;42.134;24.718;2022-08-30T04:41:37;99544.91;;;27.45;78.73
11830;BME280;5972;42.134;24.718;2022-08-30T04:44:05;99540.84;;;27.67;76.91
11830;BME280;5972;42.134;24.718;2022-08-30T04:46:33;99546.28;;;27.80;76.04
11830;BME280;5972;42.134;24.718;2022-08-30T04:49:01;99551.88;;;27.98;74.46
11830;BME280;5972;42.134;24.718;2022-08-30T04:51:29;99552.09;;;28.22;72.53
11830;BME280;5972;42.134;24.718;2022-08-30T04:53:56;99546.66;;;28.55;69.89
11830;BME280;5972;42.134;24.718;2022-08-30T04:56:24;99551.63;;;28.78;67.98
11830;BME280;5972;42.134;24.718;2022-08-30T04:58:53;99553.34;;;29.27;65.28
11830;BME280;5972;42.134;24.718;2022-08-30T05:01:23;99560.13;;;30.25;59.56
11830;BME280;5972;42.134;24.718;2022-08-30T05:03:51;99557.19;;;30.96;55.08
11830;BME280;5972;42.134;24.718;2022-08-30T05:06:20;99561.84;;;31.63;51.47
11830;BME280;5972;42.134;24.718;2022-08-30T05:08:48;99556.63;;;32.26;48.02
11830;BME280;5972;42.134;24.718;2022-08-30T05:11:16;99567.59;;;33.01;45.45
11830;BME280;5972;42.134;24.718;2022-08-30T05:13:44;99567.75;;;33.18;44.75
11830;BME280;5972;42.134;24.718;2022-08-30T05:16:11;99564.41;;;33.83;42.57
11830;BME280;5972;42.134;24.718;2022-08-30T05:18:42;99561.88;;;34.44;41.17
11830;BME280;5972;42.134;24.718;2022-08-30T05:21:12;99547.41;;;34.84;39.96
11830;BME280;5972;42.134;24.718;2022-08-30T05:23:40;99558.69;;;35.34;38.72
11830;BME280;5972;42.134;24.718;2022-08-30T05:26:10;99565.53;;;35.67;37.56
11830;BME280;5972;42.134;24.718;2022-08-30T05:28:38;99559.31;;;36.07;36.41
11830;BME280;5972;42.134;24.718;2022-08-30T05:31:12;99566.34;;;36.42;35.78
11830;BME280;5972;42.134;24.718;2022-08-30T05:33:39;99571.88;;;36.64;35.17
11830;BME280;5972;42.134;24.718;2022-08-30T05:36:07;99569.50;;;36.74;34.97
11830;BME280;5972;42.134;24.718;2022-08-30T05:38:34;99566.91;;;37.17;33.84
11830;BME280;5972;42.134;24.718;2022-08-30T05:41:01;99574.03;;;37.23;33.59
11830;BME280;5972;42.134;24.718;2022-08-30T05:43:30;99572.78;;;37.48;32.93
11830;BME280;5972;42.134;24.718;2022-08-30T05:45:58;99580.59;;;37.67;32.94
11830;BME280;5972;42.134;24.718;2022-08-30T05:48:26;99573.44;;;37.84;32.66
11830;BME280;5972;42.134;24.718;2022-08-30T05:51:04;99570.16;;;38.05;31.70
11830;BME280;5972;42.134;24.718;2022-08-30T05:53:32;99578.69;;;37.99;31.82
11830;BME280;5972;42.134;24.718;2022-08-30T05:56:00;99568.09;;;38.05;31.58
11830;BME280;5972;42.134;24.718;2022-08-30T05:58:29;99576.16;;;38.39;30.81
11830;BME280;5972;42.134;24.718;2022-08-30T06:00:56;99572.22;;;38.79;30.61
11830;BME280;5972;42.134;24.718;2022-08-30T06:03:25;99565.44;;;39.06;29.47
11830;BME280;5972;42.134;24.718;2022-08-30T06:05:57;99562.78;;;39.40;29.54
11830;BME280;5972;42.134;24.718;2022-08-30T06:08:24;99559.91;;;39.85;28.85
11830;BME280;5972;42.134;24.718;2022-08-30T06:10:53;99570.03;;;40.34;28.13
11830;BME280;5972;42.134;24.718;2022-08-30T06:13:19;99572.56;;;40.92;27.19
11830;BME280;5972;42.134;24.718;2022-08-30T06:15:48;99564.31;;;40.81;27.39
11830;BME280;5972;42.134;24.718;2022-08-30T06:18:17;99577.50;;;41.33;27.18
11830;BME280;5972;42.134;24.718;2022-08-30T06:20:44;99569.94;;;41.56;26.64
11830;BME280;5972;42.134;24.718;2022-08-30T06:23:13;99582.84;;;41.57;26.58
11830;BME280;5972;42.134;24.718;2022-08-30T06:25:42;99581.63;;;41.81;26.39
11830;BME280;5972;42.134;24.718;2022-08-30T06:28:09;99566.81;;;42.03;26.15
11830;BME280;5972;42.134;24.718;2022-08-30T06:30:38;99579.22;;;41.85;26.11
11830;BME280;5972;42.134;24.718;2022-08-30T06:33:07;99577.69;;;41.84;26.06
11830;BME280;5972;42.134;24.718;2022-08-30T06:35:34;99588.44;;;41.49;26.21
11830;BME280;5972;42.134;24.718;2022-08-30T06:38:02;99586.53;;;41.24;26.54
11830;BME280;5972;42.134;24.718;2022-08-30T06:40:30;99569.47;;;40.69;27.15
11830;BME280;5972;42.134;24.718;2022-08-30T06:42:57;99582.03;;;39.87;28.28
11830;BME280;5972;42.134;24.718;2022-08-30T06:45:24;99567.69;;;38.57;29.68
11830;BME280;5972;42.134;24.718;2022-08-30T06:47:50;99568.88;;;37.81;31.20
11830;BME280;5972;42.134;24.718;2022-08-30T06:50:19;99562.97;;;37.25;32.00
11830;BME280;5972;42.134;24.718;2022-08-30T06:52:48;99565.09;;;36.84;33.19
11830;BME280;5972;42.134;24.718;2022-08-30T06:55:16;99565.25;;;36.56;33.51
11830;BME280;5972;42.134;24.718;2022-08-30T06:57:44;99557.63;;;36.40;33.68
11830;BME280;5972;42.134;24.718;2022-08-30T07:00:14;99572.47;;;36.46;33.65
11830;BME280;5972;42.134;24.718;2022-08-30T07:02:41;99553.31;;;36.39;33.63
11830;BME280;5972;42.134;24.718;2022-08-30T07:05:09;99567.31;;;36.55;33.83
11830;BME280;5972;42.134;24.718;2022-08-30T07:07:38;99570.00;;;36.78;33.77
11830;BME280;5972;42.134;24.718;2022-08-30T07:10:06;99558.03;;;36.60;33.94
11830;BME280;5972;42.134;24.718;2022-08-30T07:12:34;99556.28;;;36.52;34.20
11830;BME280;5972;42.134;24.718;2022-08-30T07:15:02;99552.75;;;36.87;33.60
11830;BME280;5972;42.134;24.718;2022-08-30T07:17:32;99562.34;;;36.73;33.58
11830;BME280;5972;42.134;24.718;2022-08-30T07:20:21;99559.63;;;36.91;33.43
11830;BME280;5972;42.134;24.718;2022-08-30T07:22:52;99558.88;;;36.91;33.54
11830;BME280;5972;42.134;24.718;2022-08-30T07:25:19;99541.25;;;36.79;33.74
11830;BME280;5972;42.134;24.718;2022-08-30T07:27:46;99568.78;;;37.03;33.60
11830;BME280;5972;42.134;24.718;2022-08-30T07:30:18;99547.25;;;37.05;33.28
11830;BME280;5972;42.134;24.718;2022-08-30T07:32:47;99569.78;;;37.11;32.96
11830;BME280;5972;42.134;24.718;2022-08-30T07:35:18;99565.66;;;37.12;33.12
11830;BME280;5972;42.134;24.718;2022-08-30T07:37:49;99565.44;;;37.34;32.80
11830;BME280;5972;42.134;24.718;2022-08-30T07:40:16;99548.56;;;37.29;32.79
11830;BME280;5972;42.134;24.718;2022-08-30T07:42:43;99559.63;;;37.57;32.59
11830;BME280;5972;42.134;24.718;2022-08-30T07:45:11;99554.72;;;37.33;33.18
11830;BME280;5972;42.134;24.718;2022-08-30T07:47:40;99561.41;;;37.60;32.72
11830;BME280;5972;42.134;24.718;2022-08-30T07:50:07;99561.34;;;37.65;32.81
11830;BME280;5972;42.134;24.718;2022-08-30T07:52:34;99555.50;;;37.58;32.80
11830;BME280;5972;42.134;24.718;2022-08-30T07:55:05;99578.81;;;37.64;33.07
11830;BME280;5972;42.134;24.718;2022-08-30T07:57:32;99563.03;;;37.74;32.23
11830;BME280;5972;42.134;24.718;2022-08-30T07:59:59;99570.09;;;37.86;32.01
11830;BME280;5972;42.134;24.718;2022-08-30T08:02:26;99571.88;;;37.89;32.19
11830;BME280;5972;42.134;24.718;2022-08-30T08:04:53;99555.75;;;37.84;31.55
11830;BME280;5972;42.134;24.718;2022-08-30T08:07:20;99560.19;;;37.98;31.51
11830;BME280;5972;42.134;24.718;2022-08-30T08:09:47;99553.66;;;38.09;30.63
11830;BME280;5972;42.134;24.718;2022-08-30T08:12:15;99571.31;;;38.15;30.79
11830;BME280;5972;42.134;24.718;2022-08-30T08:14:42;99572.19;;;38.28;30.97
11830;BME280;5972;42.134;24.718;2022-08-30T08:17:09;99562.69;;;38.26;31.21
11830;BME280;5972;42.134;24.718;2022-08-30T08:19:36;99559.84;;;38.50;30.10
11830;BME280;5972;42.134;24.718;2022-08-30T08:22:03;99563.34;;;38.56;30.83
11830;BME280;5972;42.134;24.718;2022-08-30T08:24:33;99555.50;;;38.81;29.79
11830;BME280;5972;42.134;24.718;2022-08-30T08:27:02;99564.13;;;38.89;29.97
11830;BME280;5972;42.134;24.718;2022-08-30T08:29:31;99551.59;;;38.84;30.06
11830;BME280;5972;42.134;24.718;2022-08-30T08:31:58;99564.34;;;39.09;30.08
11830;BME280;5972;42.134;24.718;2022-08-30T08:34:26;99549.50;;;39.03;30.41
11830;BME280;5972;42.134;24.718;2022-08-30T08:36:53;99558.22;;;39.05;29.83
11830;BME280;5972;42.134;24.718;2022-08-30T08:39:19;99558.25;;;39.19;29.33
11830;BME280;5972;42.134;24.718;2022-08-30T08:41:56;99556.50;;;39.16;29.85
11830;BME280;5972;42.134;24.718;2022-08-30T08:44:40;99556.94;;;39.06;28.91
11830;BME280;5972;42.134;24.718;2022-08-30T08:47:14;99544.66;;;39.17;29.07
11830;BME280;5972;42.134;24.718;2022-08-30T08:49:45;99550.84;;;39.61;28.47
11830;BME280;5972;42.134;24.718;2022-08-30T08:52:18;99553.66;;;39.74;28.67
11830;BME280;5972;42.134;24.718;2022-08-30T08:55:08;99526.66;;;39.86;27.82
11830;BME280;5972;42.134;24.718;2022-08-30T08:57:36;99544.97;;;39.98;27.50
11830;BME280;5972;42.134;24.718;2022-08-30T09:00:07;99530.44;;;40.02;27.72
11830;BME280;5972;42.134;24.718;2022-08-30T09:02:39;99538.72;;;40.13;26.65
11830;BME280;5972;42.134;24.718;2022-08-30T09:05:08;99538.84;;;40.07;26.24
11830;BME280;5972;42.134;24.718;2022-08-30T09:07:39;99546.81;;;40.22;26.06
11830;BME280;5972;42.134;24.718;2022-08-30T09:10:08;99544.00;;;40.56;25.78
11830;BME280;5972;42.134;24.718;2022-08-30T09:12:35;99550.22;;;40.88;25.67
11830;BME280;5972;42.134;24.718;2022-08-30T09:15:09;99534.41;;;40.80;26.01
11830;BME280;5972;42.134;24.718;2022-08-30T09:17:50;99526.66;;;40.80;26.11
11830;BME280;5972;42.134;24.718;2022-08-30T09:20:26;99547.91;;;40.87;26.01
11830;BME280;5972;42.134;24.718;2022-08-30T09:22:53;99529.56;;;40.67;25.74
11830;BME280;5972;42.134;24.718;2022-08-30T09:25:25;99505.34;;;40.87;24.97
11830;BME280;5972;42.134;24.718;2022-08-30T09:27:54;99536.16;;;41.03;25.45
11830;BME280;5972;42.134;24.718;2022-08-30T09:30:35;99524.78;;;41.03;25.66
11830;BME280;5972;42.134;24.718;2022-08-30T09:33:04;99531.09;;;41.30;25.07
11830;BME280;5972;42.134;24.718;2022-08-30T09:35:34;99533.78;;;41.36;24.72
11830;BME280;5972;42.134;24.718;2022-08-30T09:38:05;99510.59;;;41.24;24.82
11830;BME280;5972;42.134;24.718;2022-08-30T09:40:36;99517.00;;;41.45;24.67
11830;BME280;5972;42.134;24.718;2022-08-30T09:43:07;99502.44;;;41.21;25.51
11830;BME280;5972;42.134;24.718;2022-08-30T09:45:38;99508.38;;;41.59;24.45
11830;BME280;5972;42.134;24.718;2022-08-30T09:48:29;99519.63;;;41.43;24.98
11830;BME280;5972;42.134;24.718;2022-08-30T09:51:09;99508.22;;;41.64;24.89
11830;BME280;5972;42.134;24.718;2022-08-30T09:53:45;99498.84;;;41.77;24.26
11830;BME280;5972;42.134;24.718;2022-08-30T09:56:19;99496.84;;;41.92;24.50
11830;BME280;5972;42.134;24.718;2022-08-30T09:58:57;99523.03;;;41.99;25.26
11830;BME280;5972;42.134;24.718;2022-08-30T10:01:30;99498.47;;;42.16;24.48
11830;BME280;5972;42.134;24.718;2022-08-30T10:04:05;99502.91;;;41.89;24.64
11830;BME280;5972;42.134;24.718;2022-08-30T10:06:40;99482.09;;;41.66;25.08
11830;BME280;5972;42.134;24.718;2022-08-30T10:09:16;99485.69;;;42.46;24.53
11830;BME280;5972;42.134;24.718;2022-08-30T10:11:51;99449.88;;;41.99;24.60
11830;BME280;5972;42.134;24.718;2022-08-30T10:14:40;99475.00;;;42.31;24.59
11830;BME280;5972;42.134;24.718;2022-08-30T10:17:15;99484.53;;;41.98;25.13
11830;BME280;5972;42.134;24.718;2022-08-30T10:19:56;99476.75;;;42.34;25.00
11830;BME280;5972;42.134;24.718;2022-08-30T10:22:29;99477.56;;;42.88;24.11
11830;BME280;5972;42.134;24.718;2022-08-30T10:25:02;99444.72;;;42.41;24.19
11830;BME280;5972;42.134;24.718;2022-08-30T10:27:36;99456.72;;;42.78;23.76
11830;BME280;5972;42.134;24.718;2022-08-30T10:30:07;99479.50;;;42.85;23.68
11830;BME280;5972;42.134;24.718;2022-08-30T10:32:41;99465.97;;;42.55;23.48
11830;BME280;5972;42.134;24.718;2022-08-30T10:35:12;99469.81;;;42.73;23.33
11830;BME280;5972;42.134;24.718;2022-08-30T10:37:49;99470.19;;;43.00;23.23
11830;BME280;5972;42.134;24.718;2022-08-30T10:40:29;99458.59;;;42.98;22.54
11830;BME280;5972;42.134;24.718;2022-08-30T10:43:20;99461.59;;;42.54;23.29
11830;BME280;5972;42.134;24.718;2022-08-30T10:45:49;99461.22;;;42.50;23.42
11830;BME280;5972;42.134;24.718;2022-08-30T10:48:20;99442.97;;;41.79;24.04
11830;BME280;5972;42.134;24.718;2022-08-30T10:50:51;99438.41;;;41.40;24.10
11830;BME280;5972;42.134;24.718;2022-08-30T10:53:27;99463.03;;;40.96;24.24
11830;BME280;5972;42.134;24.718;2022-08-30T10:56:00;99435.22;;;40.53;25.28
11830;BME280;5972;42.134;24.718;2022-08-30T10:58:28;99449.16;;;39.97;25.47
11830;BME280;5972;42.134;24.718;2022-08-30T11:01:14;99447.34;;;39.46;26.15
11830;BME280;5972;42.134;24.718;2022-08-30T11:04:22;99443.56;;;38.86;27.07
11830;BME280;5972;42.134;24.718;2022-08-30T11:07:01;99432.78;;;38.20;27.59
11830;BME280;5972;42.134;24.718;2022-08-30T11:09:45;99444.91;;;37.05;29.34
11830;BME280;5972;42.134;24.718;2022-08-30T11:12:31;99444.00;;;37.21;28.62
11830;BME280;5972;42.134;24.718;2022-08-30T11:15:03;99403.06;;;37.33;27.82
11830;BME280;5972;42.134;24.718;2022-08-30T11:17:39;99388.06;;;37.44;28.02
11830;BME280;5972;42.134;24.718;2022-08-30T11:20:22;99421.69;;;37.85;27.58
11830;BME280;5972;42.134;24.718;2022-08-30T11:23:31;99426.13;;;37.99;27.72
11830;BME280;5972;42.134;24.718;2022-08-30T11:26:00;99425.34;;;37.80;27.75
11830;BME280;5972;42.134;24.718;2022-08-30T11:29:01;99423.66;;;37.90;28.30
11830;BME280;5972;42.134;24.718;2022-08-30T11:31:33;99420.75;;;37.58;27.93
11830;BME280;5972;42.134;24.718;2022-08-30T11:34:00;99424.97;;;37.46;27.90
11830;BME280;5972;42.134;24.718;2022-08-30T11:39:51;99412.88;;;36.78;29.30
11830;BME280;5972;42.134;24.718;2022-08-30T11:42:26;99405.28;;;36.32;29.91
11830;BME280;5972;42.134;24.718;2022-08-30T11:48:02;99394.03;;;37.16;28.85
11830;BME280;5972;42.134;24.718;2022-08-30T11:50:37;99391.75;;;37.58;28.19
11830;BME280;5972;42.134;24.718;2022-08-30T11:53:10;99390.59;;;37.85;27.80
11830;BME280;5972;42.134;24.718;2022-08-30T11:55:55;99377.19;;;37.72;28.07
11830;BME280;5972;42.134;24.718;2022-08-30T11:58:32;99385.03;;;37.98;27.60
11830;BME280;5972;42.134;24.718;2022-08-30T12:01:15;99368.16;;;37.93;27.73
11830;BME280;5972;42.134;24.718;2022-08-30T12:03:43;99384.81;;;38.15;27.59
11830;BME280;5972;42.134;24.718;2022-08-30T12:06:11;99382.66;;;38.21;27.47
11830;BME280;5972;42.134;24.718;2022-08-30T12:08:58;99381.38;;;38.22;27.47
11830;BME280;5972;42.134;24.718;2022-08-30T12:12:01;99377.63;;;38.14;27.17
11830;BME280;5972;42.134;24.718;2022-08-30T12:14:47;99375.34;;;38.12;27.42
11830;BME280;5972;42.134;24.718;2022-08-30T12:17:27;99370.84;;;38.22;27.83
11830;BME280;5972;42.134;24.718;2022-08-30T12:20:23;99363.22;;;38.31;27.02
11830;BME280;5972;42.134;24.718;2022-08-30T12:22:52;99361.84;;;38.37;26.83
11830;BME280;5972;42.134;24.718;2022-08-30T12:25:24;99368.97;;;38.25;27.57
11830;BME280;5972;42.134;24.718;2022-08-30T12:28:07;99368.38;;;38.13;27.14
11830;BME280;5972;42.134;24.718;2022-08-30T12:30:34;99353.81;;;38.09;27.14
11830;BME280;5972;42.134;24.718;2022-08-30T12:33:05;99364.84;;;38.26;26.83
11830;BME280;5972;42.134;24.718;2022-08-30T12:35:32;99378.56;;;38.35;26.62
11830;BME280;5972;42.134;24.718;2022-08-30T12:38:02;99372.75;;;38.14;26.83
11830;BME280;5972;42.134;24.718;2022-08-30T12:40:32;99371.19;;;38.32;27.03
11830;BME280;5972;42.134;24.718;2022-08-30T12:43:04;99372.47;;;38.50;26.78
11830;BME280;5972;42.134;24.718;2022-08-30T12:45:42;99397.50;;;38.08;27.46
11830;BME280;5972;42.134;24.718;2022-08-30T12:48:13;99399.06;;;35.98;30.13
11830;BME280;5972;42.134;24.718;2022-08-30T12:50:45;99381.69;;;35.36;31.03
11830;BME280;5972;42.134;24.718;2022-08-30T12:53:23;99387.41;;;35.03;31.81
11830;BME280;5972;42.134;24.718;2022-08-30T12:55:54;99418.34;;;34.64;33.29
11830;BME280;5972;42.134;24.718;2022-08-30T12:58:41;99401.16;;;34.06;33.87
11830;BME280;5972;42.134;24.718;2022-08-30T13:01:32;99377.38;;;33.20;34.84
11830;BME280;5972;42.134;24.718;2022-08-30T13:04:02;99414.94;;;33.45;34.38
11830;BME280;5972;42.134;24.718;2022-08-30T13:06:41;99384.03;;;32.91;33.80
11830;BME280;5972;42.134;24.718;2022-08-30T13:09:19;99403.16;;;32.61;33.72
11830;BME280;5972;42.134;24.718;2022-08-30T13:11:49;99400.50;;;32.47;34.42
11830;BME280;5972;42.134;24.718;2022-08-30T13:14:31;99368.06;;;32.09;36.03
11830;BME280;5972;42.134;24.718;2022-08-30T13:17:08;99371.88;;;32.11;37.18
11830;BME280;5972;42.134;24.718;2022-08-30T13:19:37;99374.78;;;31.71;38.22
11830;BME280;5972;42.134;24.718;2022-08-30T13:22:06;99366.38;;;31.51;38.60